sensor_id;sensor_type;location;lat;lon;timestamp;pressure;altitude;pressure_sealevel;temperature;humidity
31044;BME280;17710;52.520;13.352;2023-09-19T00:02:25;100264.06;;;23.30;71.41
31044;BME280;17710;52.520;13.352;2023-09-19T00:04:52;100267.69;;;23.38;70.73
31044;BME280;17710;52.520;13.352;2023-09-19T00:07:18;100263.50;;;23.26;71.35
31044;BME280;17710;52.520;13.352;2023-09-19T00:09:46;100262.31;;;23.38;70.83
31044;BME280;17710;52.520;13.352;2023-09-19T00:12:13;100270.19;;;23.22;70.94
31044;BME280;17710;52.520;13.352;2023-09-19T00:14:40;100258.97;;;23.17;71.08
31044;BME280;17710;52.520;13.352;2023-09-19T00:17:08;100258.16;;;23.07;72.01
31044;BME280;17710;52.520;13.352;2023-09-19T00:19:35;100253.81;;;23.33;70.69
31044;BME280;17710;52.520;13.352;2023-09-19T00:22:02;100249.72;;;23.29;70.89
31044;BME280;17710;52.520;13.352;2023-09-19T00:24:28;100246.22;;;23.19;71.20
31044;BME280;17710;52.520;13.352;2023-09-19T00:26:56;100263.63;;;23.25;70.88
31044;BME280;17710;52.520;13.352;2023-09-19T00:29:24;100253.09;;;23.31;70.36
31044;BME280;17710;52.520;13.352;2023-09-19T00:31:54;100252.91;;;23.15;71.24
31044;BME280;17710;52.520;13.352;2023-09-19T00:34:22;100251.47;;;23.11;71.07
31044;BME280;17710;52.520;13.352;2023-09-19T00:36:48;100250.25;;;22.86;72.08
31044;BME280;17710;52.520;13.352;2023-09-19T00:39:15;100251.19;;;23.14;71.30
31044;BME280;17710;52.520;13.352;2023-09-19T00:41:41;100254.66;;;22.97;72.10
31044;BME280;17710;52.520;13.352;2023-09-19T00:44:09;100255.91;;;22.93;71.99
31044;BME280;17710;52.520;13.352;2023-09-19T00:46:37;100254.53;;;22.89;72.00
31044;BME280;17710;52.520;13.352;2023-09-19T00:49:04;100253.94;;;22.95;71.50
31044;BME280;17710;52.520;13.352;2023-09-19T00:51:31;100256.50;;;22.96;71.23
31044;BME280;17710;52.520;13.352;2023-09-19T00:53:59;100260.41;;;23.12;70.97
31044;BME280;17710;52.520;13.352;2023-09-19T00:56:25;100254.34;;;23.00;71.29
31044;BME280;17710;52.520;13.352;2023-09-19T00:58:52;100260.59;;;23.00;71.16
31044;BME280;17710;52.520;13.352;2023-09-19T01:01:18;100255.50;;;22.88;71.46
31044;BME280;17710;52.520;13.352;2023-09-19T01:03:45;100270.66;;;22.98;71.51
31044;BME280;17710;52.520;13.352;2023-09-19T01:06:11;100269.81;;;22.98;70.91
31044;BME280;17710;52.520;13.352;2023-09-19T01:08:39;100255.09;;;22.73;72.24
31044;BME280;17710;52.520;13.352;2023-09-19T01:11:17;100251.28;;;22.76;72.04
31044;BME280;17710;52.520;13.352;2023-09-19T01:13:53;100256.53;;;22.77;72.39
31044;BME280;17710;52.520;13.352;2023-09-19T01:16:32;100269.13;;;22.86;71.53
31044;BME280;17710;52.520;13.352;2023-09-19T01:19:12;100263.03;;;22.84;71.15
31044;BME280;17710;52.520;13.352;2023-09-19T01:21:54;100265.88;;;22.83;71.57
31044;BME280;17710;52.520;13.352;2023-09-19T01:25:00;100257.09;;;22.81;71.74
31044;BME280;17710;52.520;13.352;2023-09-19T01:28:00;100265.88;;;22.63;72.44
31044;BME280;17710;52.520;13.352;2023-09-19T01:30:32;100264.31;;;22.90;71.08
31044;BME280;17710;52.520;13.352;2023-09-19T01:33:01;100265.56;;;22.86;71.08
31044;BME280;17710;52.520;13.352;2023-09-19T01:35:29;100274.94;;;22.62;71.83
31044;BME280;17710;52.520;13.352;2023-09-19T01:37:55;100265.72;;;22.84;71.21
31044;BME280;17710;52.520;13.352;2023-09-19T01:40:22;100265.44;;;22.78;71.23
31044;BME280;17710;52.520;13.352;2023-09-19T01:42:54;100266.16;;;22.80;71.50
31044;BME280;17710;52.520;13.352;2023-09-19T01:45:29;100275.81;;;22.73;71.53
31044;BME280;17710;52.520;13.352;2023-09-19T01:48:06;100263.91;;;22.75;71.22
31044;BME280;17710;52.520;13.352;2023-09-19T01:50:44;100274.09;;;22.62;71.96
31044;BME280;17710;52.520;13.352;2023-09-19T01:53:21;100265.03;;;22.82;71.20
31044;BME280;17710;52.520;13.352;2023-09-19T01:55:49;100264.00;;;22.93;70.25
31044;BME280;17710;52.520;13.352;2023-09-19T01:58:20;100268.84;;;22.60;71.89
31044;BME280;17710;52.520;13.352;2023-09-19T02:00:48;100270.81;;;22.78;71.28
31044;BME280;17710;52.520;13.352;2023-09-19T02:03:20;100279.75;;;22.69;71.52
31044;BME280;17710;52.520;13.352;2023-09-19T02:05:49;100279.59;;;22.60;71.81
31044;BME280;17710;52.520;13.352;2023-09-19T02:08:17;100279.94;;;22.77;71.10
31044;BME280;17710;52.520;13.352;2023-09-19T02:10:44;100287.13;;;22.86;70.68
31044;BME280;17710;52.520;13.352;2023-09-19T02:13:14;100283.31;;;22.69;71.35
31044;BME280;17710;52.520;13.352;2023-09-19T02:15:40;100285.84;;;22.71;71.24
31044;BME280;17710;52.520;13.352;2023-09-19T02:18:09;100297.06;;;22.56;71.73
31044;BME280;17710;52.520;13.352;2023-09-19T02:20:38;100301.00;;;22.52;72.24
31044;BME280;17710;52.520;13.352;2023-09-19T02:23:05;100301.72;;;22.35;72.91
31044;BME280;17710;52.520;13.352;2023-09-19T02:25:31;100304.13;;;22.38;73.12
31044;BME280;17710;52.520;13.352;2023-09-19T02:27:58;100310.94;;;22.61;72.00
31044;BME280;17710;52.520;13.352;2023-09-19T02:30:26;100306.09;;;22.65;71.79
31044;BME280;17710;52.520;13.352;2023-09-19T02:32:52;100303.28;;;22.47;72.41
31044;BME280;17710;52.520;13.352;2023-09-19T02:35:19;100303.38;;;22.26;73.35
31044;BME280;17710;52.520;13.352;2023-09-19T02:37:47;100303.84;;;22.51;72.24
31044;BME280;17710;52.520;13.352;2023-09-19T02:40:14;100307.09;;;22.54;72.23
31044;BME280;17710;52.520;13.352;2023-09-19T02:42:45;100316.03;;;22.55;72.34
31044;BME280;17710;52.520;13.352;2023-09-19T02:45:14;100317.88;;;22.45;73.20
31044;BME280;17710;52.520;13.352;2023-09-19T02:47:40;100321.97;;;22.39;73.02
31044;BME280;17710;52.520;13.352;2023-09-19T02:50:07;100322.41;;;22.25;73.74
31044;BME280;17710;52.520;13.352;2023-09-19T02:52:34;100313.38;;;21.96;74.75
31044;BME280;17710;52.520;13.352;2023-09-19T02:55:02;100328.13;;;22.01;75.07
31044;BME280;17710;52.520;13.352;2023-09-19T02:57:31;100326.41;;;22.00;75.02
31044;BME280;17710;52.520;13.352;2023-09-19T02:59:59;100324.50;;;22.12;74.38
31044;BME280;17710;52.520;13.352;2023-09-19T03:02:26;100336.25;;;22.11;74.50
31044;BME280;17710;52.520;13.352;2023-09-19T03:04:53;100337.19;;;22.00;74.39
31044;BME280;17710;52.520;13.352;2023-09-19T03:07:19;100340.63;;;22.12;73.87
31044;BME280;17710;52.520;13.352;2023-09-19T03:09:46;100339.00;;;22.00;73.62
31044;BME280;17710;52.520;13.352;2023-09-19T03:12:14;100339.22;;;21.87;73.56
31044;BME280;17710;52.520;13.352;2023-09-19T03:14:41;100339.47;;;22.05;72.89
31044;BME280;17710;52.520;13.352;2023-09-19T03:17:07;100342.44;;;22.02;72.13
31044;BME280;17710;52.520;13.352;2023-09-19T03:19:34;100341.91;;;21.87;73.07
31044;BME280;17710;52.520;13.352;2023-09-19T03:22:03;100341.53;;;21.92;72.57
31044;BME280;17710;52.520;13.352;2023-09-19T03:24:30;100343.94;;;21.95;72.16
31044;BME280;17710;52.520;13.352;2023-09-19T03:26:58;100355.16;;;21.69;72.84
31044;BME280;17710;52.520;13.352;2023-09-19T03:29:26;100351.81;;;21.77;72.36
31044;BME280;17710;52.520;13.352;2023-09-19T03:31:52;100359.03;;;21.86;71.64
31044;BME280;17710;52.520;13.352;2023-09-19T03:34:19;100354.06;;;21.81;71.18
31044;BME280;17710;52.520;13.352;2023-09-19T03:36:46;100356.22;;;21.87;71.22
31044;BME280;17710;52.520;13.352;2023-09-19T03:39:12;100359.16;;;21.75;70.53
31044;BME280;17710;52.520;13.352;2023-09-19T03:41:40;100361.97;;;21.73;70.54
31044;BME280;17710;52.520;13.352;2023-09-19T03:44:08;100361.34;;;21.91;69.91
31044;BME280;17710;52.520;13.352;2023-09-19T03:46:36;100368.56;;;21.90;68.94
31044;BME280;17710;52.520;13.352;2023-09-19T03:49:04;100372.28;;;21.68;69.45
31044;BME280;17710;52.520;13.352;2023-09-19T03:51:30;100377.59;;;21.89;68.40
31044;BME280;17710;52.520;13.352;2023-09-19T03:53:56;100376.00;;;21.77;68.00
31044;BME280;17710;52.520;13.352;2023-09-19T03:56:23;100377.66;;;21.68;68.09
31044;BME280;17710;52.520;13.352;2023-09-19T03:58:49;100374.97;;;21.68;67.84
31044;BME280;17710;52.520;13.352;2023-09-19T04:01:16;100380.53;;;21.76;67.49
31044;BME280;17710;52.520;13.352;2023-09-19T04:03:45;100376.03;;;21.86;66.23
31044;BME280;17710;52.520;13.352;2023-09-19T04:06:17;100384.41;;;21.63;66.06
31044;BME280;17710;52.520;13.352;2023-09-19T04:08:43;100383.31;;;21.65;66.51
31044;BME280;17710;52.520;13.352;2023-09-19T04:11:11;100384.28;;;21.64;66.22
31044;BME280;17710;52.520;13.352;2023-09-19T04:13:38;100386.56;;;21.69;65.53
31044;BME280;17710;52.520;13.352;2023-09-19T04:16:04;100379.56;;;21.87;64.93
31044;BME280;17710;52.520;13.352;2023-09-19T04:18:32;100389.00;;;21.72;64.40
31044;BME280;17710;52.520;13.352;2023-09-19T04:21:03;100387.31;;;21.71;64.50
31044;BME280;17710;52.520;13.352;2023-09-19T04:23:30;100390.75;;;21.52;64.71
31044;BME280;17710;52.520;13.352;2023-09-19T04:25:57;100388.38;;;21.59;64.39
31044;BME280;17710;52.520;13.352;2023-09-19T04:28:23;100397.31;;;21.38;65.72
31044;BME280;17710;52.520;13.352;2023-09-19T04:30:50;100388.97;;;21.41;65.32
31044;BME280;17710;52.520;13.352;2023-09-19T04:33:17;100396.97;;;21.53;64.60
31044;BME280;17710;52.520;13.352;2023-09-19T04:35:43;100398.41;;;21.57;64.36
31044;BME280;17710;52.520;13.352;2023-09-19T04:38:11;100403.50;;;21.60;64.21
31044;BME280;17710;52.520;13.352;2023-09-19T04:40:39;100408.09;;;21.69;63.82
31044;BME280;17710;52.520;13.352;2023-09-19T04:43:05;100411.44;;;21.61;63.95
31044;BME280;17710;52.520;13.352;2023-09-19T04:45:32;100412.16;;;21.63;63.78
31044;BME280;17710;52.520;13.352;2023-09-19T04:47:59;100416.81;;;21.61;63.69
31044;BME280;17710;52.520;13.352;2023-09-19T04:50:26;100414.31;;;21.69;63.46
31044;BME280;17710;52.520;13.352;2023-09-19T04:52:53;100411.66;;;21.48;63.95
31044;BME280;17710;52.520;13.352;2023-09-19T04:55:21;100427.91;;;21.15;65.07
31044;BME280;17710;52.520;13.352;2023-09-19T04:57:49;100420.84;;;21.46;64.36
31044;BME280;17710;52.520;13.352;2023-09-19T05:00:17;100422.16;;;21.31;64.40
31044;BME280;17710;52.520;13.352;2023-09-19T05:02:44;100424.75;;;21.42;64.19
31044;BME280;17710;52.520;13.352;2023-09-19T05:05:12;100439.44;;;21.38;64.12
31044;BME280;17710;52.520;13.352;2023-09-19T05:07:42;100438.47;;;21.39;63.99
31044;BME280;17710;52.520;13.352;2023-09-19T05:10:09;100443.25;;;21.35;64.05
31044;BME280;17710;52.520;13.352;2023-09-19T05:12:38;100446.34;;;21.31;64.51
31044;BME280;17710;52.520;13.352;2023-09-19T05:15:06;100445.88;;;21.26;64.21
31044;BME280;17710;52.520;13.352;2023-09-19T05:17:34;100453.47;;;21.41;63.68
31044;BME280;17710;52.520;13.352;2023-09-19T05:20:00;100448.72;;;21.13;64.51
31044;BME280;17710;52.520;13.352;2023-09-19T05:22:36;100452.09;;;21.26;63.99
31044;BME280;17710;52.520;13.352;2023-09-19T05:25:06;100466.63;;;21.24;64.03
31044;BME280;17710;52.520;13.352;2023-09-19T05:27:32;100468.94;;;21.28;63.95
31044;BME280;17710;52.520;13.352;2023-09-19T05:30:01;100472.00;;;21.24;63.80
31044;BME280;17710;52.520;13.352;2023-09-19T05:32:27;100467.66;;;21.43;63.04
31044;BME280;17710;52.520;13.352;2023-09-19T05:34:54;100471.88;;;20.93;64.49
31044;BME280;17710;52.520;13.352;2023-09-19T05:37:21;100469.00;;;21.06;64.18
31044;BME280;17710;52.520;13.352;2023-09-19T05:39:48;100473.00;;;21.23;63.84
31044;BME280;17710;52.520;13.352;2023-09-19T05:42:15;100477.44;;;21.33;63.16
31044;BME280;17710;52.520;13.352;2023-09-19T05:44:41;100487.38;;;21.33;62.96
31044;BME280;17710;52.520;13.352;2023-09-19T05:47:09;100489.84;;;21.14;63.72
31044;BME280;17710;52.520;13.352;2023-09-19T05:49:35;100492.31;;;21.17;63.88
31044;BME280;17710;52.520;13.352;2023-09-19T05:52:04;100505.84;;;21.15;63.74
31044;BME280;17710;52.520;13.352;2023-09-19T05:54:31;100501.28;;;21.27;63.32
31044;BME280;17710;52.520;13.352;2023-09-19T05:56:58;100509.63;;;21.24;63.21
31044;BME280;17710;52.520;13.352;2023-09-19T05:59:24;100507.97;;;21.43;62.62
31044;BME280;17710;52.520;13.352;2023-09-19T06:01:51;100519.81;;;21.41;62.75
31044;BME280;17710;52.520;13.352;2023-09-19T06:04:19;100513.22;;;21.45;62.56
31044;BME280;17710;52.520;13.352;2023-09-19T06:06:47;100518.53;;;21.77;61.76
31044;BME280;17710;52.520;13.352;2023-09-19T06:09:14;100521.41;;;21.64;61.37
31044;BME280;17710;52.520;13.352;2023-09-19T06:11:41;100527.56;;;21.55;61.63
31044;BME280;17710;52.520;13.352;2023-09-19T06:14:07;100536.75;;;21.53;62.01
31044;BME280;17710;52.520;13.352;2023-09-19T06:16:35;100538.47;;;21.74;61.21
31044;BME280;17710;52.520;13.352;2023-09-19T06:19:03;100528.69;;;21.73;61.27
31044;BME280;17710;52.520;13.352;2023-09-19T06:21:33;100531.91;;;21.67;61.44
31044;BME280;17710;52.520;13.352;2023-09-19T06:23:59;100536.09;;;21.81;60.70
31044;BME280;17710;52.520;13.352;2023-09-19T06:26:26;100539.66;;;21.81;60.61
31044;BME280;17710;52.520;13.352;2023-09-19T06:28:53;100544.50;;;21.87;60.39
31044;BME280;17710;52.520;13.352;2023-09-19T06:31:21;100543.63;;;21.98;59.54
31044;BME280;17710;52.520;13.352;2023-09-19T06:33:48;100544.59;;;22.18;59.11
31044;BME280;17710;52.520;13.352;2023-09-19T06:36:15;100543.69;;;22.08;59.21
31044;BME280;17710;52.520;13.352;2023-09-19T06:38:43;100549.09;;;22.38;57.55
31044;BME280;17710;52.520;13.352;2023-09-19T06:41:09;100555.31;;;22.39;57.80
31044;BME280;17710;52.520;13.352;2023-09-19T06:43:37;100564.09;;;22.71;57.55
31044;BME280;17710;52.520;13.352;2023-09-19T06:46:04;100563.50;;;22.98;56.54
31044;BME280;17710;52.520;13.352;2023-09-19T06:48:32;100564.38;;;23.08;55.71
31044;BME280;17710;52.520;13.352;2023-09-19T06:50:59;100564.34;;;22.98;55.38
31044;BME280;17710;52.520;13.352;2023-09-19T06:53:30;100566.81;;;23.30;54.48
31044;BME280;17710;52.520;13.352;2023-09-19T06:55:58;100565.13;;;23.39;54.05
31044;BME280;17710;52.520;13.352;2023-09-19T06:58:25;100576.81;;;23.68;53.10
31044;BME280;17710;52.520;13.352;2023-09-19T07:00:52;100573.41;;;23.76;52.19
31044;BME280;17710;52.520;13.352;2023-09-19T07:03:19;100577.63;;;24.07;51.55
31044;BME280;17710;52.520;13.352;2023-09-19T07:05:47;100572.94;;;23.90;51.68
31044;BME280;17710;52.520;13.352;2023-09-19T07:08:14;100577.34;;;23.43;53.31
31044;BME280;17710;52.520;13.352;2023-09-19T07:10:42;100581.03;;;23.42;53.17
31044;BME280;17710;52.520;13.352;2023-09-19T07:13:15;100586.59;;;23.79;52.41
31044;BME280;17710;52.520;13.352;2023-09-19T07:15:43;100599.66;;;23.64;51.73
31044;BME280;17710;52.520;13.352;2023-09-19T07:18:13;100587.56;;;23.39;52.32
31044;BME280;17710;52.520;13.352;2023-09-19T07:20:40;100591.81;;;23.42;52.65
31044;BME280;17710;52.520;13.352;2023-09-19T07:23:10;100602.66;;;23.71;52.20
31044;BME280;17710;52.520;13.352;2023-09-19T07:25:39;100601.47;;;23.44;52.52
31044;BME280;17710;52.520;13.352;2023-09-19T07:28:06;100599.72;;;23.24;52.91
31044;BME280;17710;52.520;13.352;2023-09-19T07:30:35;100602.75;;;22.91;53.99
31044;BME280;17710;52.520;13.352;2023-09-19T07:33:03;100602.06;;;22.89;53.67
31044;BME280;17710;52.520;13.352;2023-09-19T07:35:30;100610.75;;;23.12;53.34
31044;BME280;17710;52.520;13.352;2023-09-19T07:37:57;100607.38;;;23.10;53.54
31044;BME280;17710;52.520;13.352;2023-09-19T07:40:26;100619.63;;;22.93;53.48
31044;BME280;17710;52.520;13.352;2023-09-19T07:42:54;100600.94;;;23.01;53.15
31044;BME280;17710;52.520;13.352;2023-09-19T07:45:21;100613.56;;;23.00;52.13
31044;BME280;17710;52.520;13.352;2023-09-19T07:47:50;100608.22;;;23.10;51.16
31044;BME280;17710;52.520;13.352;2023-09-19T07:50:17;100605.41;;;23.21;51.45
31044;BME280;17710;52.520;13.352;2023-09-19T07:52:46;100620.91;;;23.38;50.44
31044;BME280;17710;52.520;13.352;2023-09-19T07:55:12;100635.88;;;23.71;48.72
31044;BME280;17710;52.520;13.352;2023-09-19T07:57:42;100637.56;;;23.72;48.35
31044;BME280;17710;52.520;13.352;2023-09-19T08:00:10;100637.44;;;24.12;47.43
31044;BME280;17710;52.520;13.352;2023-09-19T08:02:37;100640.38;;;23.52;48.19
31044;BME280;17710;52.520;13.352;2023-09-19T08:05:05;100637.16;;;23.77;47.82
31044;BME280;17710;52.520;13.352;2023-09-19T08:07:34;100633.59;;;23.57;48.41
31044;BME280;17710;52.520;13.352;2023-09-19T08:10:01;100642.22;;;23.51;48.36
31044;BME280;17710;52.520;13.352;2023-09-19T08:12:28;100635.00;;;23.90;47.97
31044;BME280;17710;52.520;13.352;2023-09-19T08:14:55;100633.75;;;23.94;47.40
31044;BME280;17710;52.520;13.352;2023-09-19T08:17:21;100636.09;;;23.30;48.37
31044;BME280;17710;52.520;13.352;2023-09-19T08:19:49;100628.31;;;22.45;49.14
31044;BME280;17710;52.520;13.352;2023-09-19T08:22:19;100637.84;;;22.29;50.33
31044;BME280;17710;52.520;13.352;2023-09-19T08:24:46;100639.28;;;22.74;49.86
31044;BME280;17710;52.520;13.352;2023-09-19T08:27:13;100638.13;;;23.07;49.02
31044;BME280;17710;52.520;13.352;2023-09-19T08:29:40;100635.38;;;22.88;49.59
31044;BME280;17710;52.520;13.352;2023-09-19T08:32:07;100639.16;;;22.76;49.92
31044;BME280;17710;52.520;13.352;2023-09-19T08:34:34;100649.47;;;23.01;49.13
31044;BME280;17710;52.520;13.352;2023-09-19T08:37:03;100642.09;;;22.73;49.61
31044;BME280;17710;52.520;13.352;2023-09-19T08:39:31;100653.13;;;22.90;49.57
31044;BME280;17710;52.520;13.352;2023-09-19T08:41:59;100662.06;;;23.00;49.13
31044;BME280;17710;52.520;13.352;2023-09-19T08:44:25;100646.28;;;23.26;47.97
31044;BME280;17710;52.520;13.352;2023-09-19T08:46:54;100655.44;;;23.54;47.46
31044;BME280;17710;52.520;13.352;2023-09-19T08:49:27;100654.88;;;23.70;46.65
31044;BME280;17710;52.520;13.352;2023-09-19T08:52:04;100659.25;;;23.02;47.08
31044;BME280;17710;52.520;13.352;2023-09-19T08:54:38;100658.00;;;22.76;48.04
31044;BME280;17710;52.520;13.352;2023-09-19T08:57:07;100653.25;;;22.98;47.26
31044;BME280;17710;52.520;13.352;2023-09-19T08:59:37;100655.22;;;22.87;47.24
31044;BME280;17710;52.520;13.352;2023-09-19T09:02:09;100665.81;;;23.19;46.55
31044;BME280;17710;52.520;13.352;2023-09-19T09:04:38;100668.97;;;22.84;47.60
31044;BME280;17710;52.520;13.352;2023-09-19T09:07:05;100656.75;;;22.80;47.40
31044;BME280;17710;52.520;13.352;2023-09-19T09:09:31;100669.19;;;23.01;46.89
31044;BME280;17710;52.520;13.352;2023-09-19T09:11:59;100671.00;;;22.71;47.02
31044;BME280;17710;52.520;13.352;2023-09-19T09:14:26;100680.81;;;23.02;46.52
31044;BME280;17710;52.520;13.352;2023-09-19T09:16:51;100680.63;;;22.94;46.40
31044;BME280;17710;52.520;13.352;2023-09-19T09:19:21;100684.91;;;23.36;45.49
31044;BME280;17710;52.520;13.352;2023-09-19T09:21:50;100684.16;;;23.84;44.27
31044;BME280;17710;52.520;13.352;2023-09-19T09:24:29;100683.53;;;23.52;44.06
31044;BME280;17710;52.520;13.352;2023-09-19T09:27:00;100688.53;;;23.66;44.01
31044;BME280;17710;52.520;13.352;2023-09-19T09:29:43;100686.28;;;24.09;42.78
31044;BME280;17710;52.520;13.352;2023-09-19T09:32:21;100685.88;;;23.75;43.12
31044;BME280;17710;52.520;13.352;2023-09-19T09:34:50;100686.59;;;23.37;43.00
31044;BME280;17710;52.520;13.352;2023-09-19T09:37:17;100683.28;;;23.24;43.66
31044;BME280;17710;52.520;13.352;2023-09-19T09:39:55;100679.47;;;23.67;43.25
31044;BME280;17710;52.520;13.352;2023-09-19T09:42:32;100685.31;;;24.01;42.26
31044;BME280;17710;52.520;13.352;2023-09-19T09:45:16;100676.22;;;24.11;41.12
31044;BME280;17710;52.520;13.352;2023-09-19T09:47:44;100690.13;;;24.16;41.06
31044;BME280;17710;52.520;13.352;2023-09-19T09:50:27;100695.53;;;23.97;41.25
31044;BME280;17710;52.520;13.352;2023-09-19T09:53:22;100691.13;;;23.87;41.09
31044;BME280;17710;52.520;13.352;2023-09-19T09:56:03;100687.59;;;24.15;40.47
31044;BME280;17710;52.520;13.352;2023-09-19T09:58:33;100690.16;;;24.26;39.70
31044;BME280;17710;52.520;13.352;2023-09-19T10:01:01;100696.97;;;24.01;39.42
31044;BME280;17710;52.520;13.352;2023-09-19T10:03:35;100697.53;;;23.95;39.86
31044;BME280;17710;52.520;13.352;2023-09-19T10:06:06;100690.13;;;23.88;39.64
31044;BME280;17710;52.520;13.352;2023-09-19T10:09:03;100703.25;;;24.21;39.09
31044;BME280;17710;52.520;13.352;2023-09-19T10:11:42;100701.16;;;24.71;38.52
31044;BME280;17710;52.520;13.352;2023-09-19T10:14:11;100698.88;;;24.76;37.23
31044;BME280;17710;52.520;13.352;2023-09-19T10:16:40;100705.50;;;24.54;36.75
31044;BME280;17710;52.520;13.352;2023-09-19T10:19:15;100691.81;;;23.69;37.32
31044;BME280;17710;52.520;13.352;2023-09-19T10:21:42;100696.22;;;23.80;38.07
31044;BME280;17710;52.520;13.352;2023-09-19T10:24:10;100695.81;;;23.75;37.70
31044;BME280;17710;52.520;13.352;2023-09-19T10:26:37;100692.25;;;24.03;38.23
31044;BME280;17710;52.520;13.352;2023-09-19T10:29:10;100697.94;;;24.10;38.47
31044;BME280;17710;52.520;13.352;2023-09-19T10:31:39;100696.09;;;24.10;37.31
31044;BME280;17710;52.520;13.352;2023-09-19T10:34:12;100689.28;;;23.87;37.91
31044;BME280;17710;52.520;13.352;2023-09-19T10:36:44;100693.69;;;24.07;37.71
31044;BME280;17710;52.520;13.352;2023-09-19T10:39:13;100686.44;;;24.17;37.82
31044;BME280;17710;52.520;13.352;2023-09-19T10:41:44;100676.19;;;24.50;37.43
31044;BME280;17710;52.520;13.352;2023-09-19T10:44:21;100682.66;;;24.86;36.33
31044;BME280;17710;52.520;13.352;2023-09-19T10:46:48;100680.88;;;25.04;35.35
31044;BME280;17710;52.520;13.352;2023-09-19T10:49:18;100683.91;;;24.26;36.16
31044;BME280;17710;52.520;13.352;2023-09-19T10:51:45;100680.41;;;24.62;35.13
31044;BME280;17710;52.520;13.352;2023-09-19T10:54:16;100684.97;;;24.71;34.64
31044;BME280;17710;52.520;13.352;2023-09-19T10:56:48;100693.06;;;24.71;34.50
31044;BME280;17710;52.520;13.352;2023-09-19T10:59:18;100690.28;;;24.44;34.67
31044;BME280;17710;52.520;13.352;2023-09-19T11:01:48;100694.78;;;24.72;34.72
31044;BME280;17710;52.520;13.352;2023-09-19T11:04:27;100694.06;;;24.70;33.72
31044;BME280;17710;52.520;13.352;2023-09-19T11:07:02;100701.03;;;24.63;33.94
31044;BME280;17710;52.520;13.352;2023-09-19T11:09:46;100703.16;;;24.79;33.81
31044;BME280;17710;52.520;13.352;2023-09-19T11:12:48;100693.41;;;24.39;34.23
31044;BME280;17710;52.520;13.352;2023-09-19T11:21:53;100702.19;;;24.03;33.95
31044;BME280;17710;52.520;13.352;2023-09-19T11:24:31;100702.53;;;24.19;34.13
31044;BME280;17710;52.520;13.352;2023-09-19T11:27:14;100712.03;;;24.33;34.20
31044;BME280;17710;52.520;13.352;2023-09-19T11:29:43;100706.63;;;24.13;34.91
31044;BME280;17710;52.520;13.352;2023-09-19T11:32:10;100709.34;;;24.23;34.74
31044;BME280;17710;52.520;13.352;2023-09-19T11:34:46;100706.31;;;24.55;34.34
31044;BME280;17710;52.520;13.352;2023-09-19T11:40:46;100714.81;;;24.79;33.49
31044;BME280;17710;52.520;13.352;2023-09-19T11:43:32;100709.19;;;24.44;33.73
31044;BME280;17710;52.520;13.352;2023-09-19T11:46:02;100708.03;;;24.37;32.80
31044;BME280;17710;52.520;13.352;2023-09-19T11:48:28;100698.59;;;24.70;32.65
31044;BME280;17710;52.520;13.352;2023-09-19T11:50:56;100703.84;;;24.81;32.60
31044;BME280;17710;52.520;13.352;2023-09-19T11:53:31;100708.97;;;24.93;32.63
31044;BME280;17710;52.520;13.352;2023-09-19T11:56:06;100701.97;;;25.28;32.33
31044;BME280;17710;52.520;13.352;2023-09-19T11:58:36;100707.59;;;25.17;32.74
31044;BME280;17710;52.520;13.352;2023-09-19T12:01:05;100690.88;;;25.31;32.03
31044;BME280;17710;52.520;13.352;2023-09-19T12:03:39;100698.84;;;25.32;32.55
31044;BME280;17710;52.520;13.352;2023-09-19T12:06:11;100700.47;;;25.16;32.52
31044;BME280;17710;52.520;13.352;2023-09-19T12:08:40;100712.56;;;24.65;32.75
31044;BME280;17710;52.520;13.352;2023-09-19T12:11:12;100705.50;;;25.01;32.61
31044;BME280;17710;52.520;13.352;2023-09-19T12:13:41;100708.50;;;25.35;32.04
31044;BME280;17710;52.520;13.352;2023-09-19T12:16:12;100707.59;;;25.44;31.63
31044;BME280;17710;52.520;13.352;2023-09-19T12:18:40;100715.78;;;25.62;31.33
31044;BME280;17710;52.520;13.352;2023-09-19T12:21:08;100720.06;;;25.27;31.22
31044;BME280;17710;52.520;13.352;2023-09-19T12:23:59;100705.59;;;25.46;31.34
31044;BME280;17710;52.520;13.352;2023-09-19T12:26:27;100709.97;;;25.47;30.50
31044;BME280;17710;52.520;13.352;2023-09-19T12:28:54;100717.66;;;25.24;31.14
31044;BME280;17710;52.520;13.352;2023-09-19T12:31:21;100719.47;;;24.87;31.28
31044;BME280;17710;52.520;13.352;2023-09-19T12:33:53;100717.25;;;25.19;30.68
31044;BME280;17710;52.520;13.352;2023-09-19T12:36:20;100722.88;;;25.35;30.91
31044;BME280;17710;52.520;13.352;2023-09-19T12:38:50;100706.81;;;25.61;30.27
31044;BME280;17710;52.520;13.352;2023-09-19T12:41:18;100702.63;;;25.67;30.38
31044;BME280;17710;52.520;13.352;2023-09-19T12:43:47;100700.00;;;25.57;30.67
31044;BME280;17710;52.520;13.352;2023-09-19T12:46:14;100714.13;;;26.14;29.91
31044;BME280;17710;52.520;13.352;2023-09-19T12:48:44;100709.41;;;25.53;30.16
31044;BME280;17710;52.520;13.352;2023-09-19T12:51:11;100695.06;;;25.70;30.34
31044;BME280;17710;52.520;13.352;2023-09-19T12:53:39;100695.56;;;25.84;30.13
31044;BME280;17710;52.520;13.352;2023-09-19T12:56:07;100695.16;;;25.96;30.30
31044;BME280;17710;52.520;13.352;2023-09-19T12:58:35;100701.22;;;26.26;29.86
31044;BME280;17710;52.520;13.352;2023-09-19T13:01:16;100708.16;;;26.46;29.63
31044;BME280;17710;52.520;13.352;2023-09-19T13:03:42;100702.28;;;26.33;29.47